createdAt,value
2022-10-19T00:01:07.565Z,9.73
2022-10-19T00:03:38.029Z,9.07
2022-10-19T00:06:14.003Z,5.53
2022-10-19T00:08:43.912Z,8.00
2022-10-19T00:11:14.494Z,5.70
2022-10-19T00:13:44.041Z,8.18
2022-10-19T00:16:18.118Z,7.05
2022-10-19T00:18:48.415Z,9.40
2022-10-19T00:21:19.561Z,9.77
2022-10-19T00:23:49.489Z,6.80
2022-10-19T00:26:19.396Z,5.95
2022-10-19T00:28:50.689Z,7.68
2022-10-19T00:31:22.006Z,8.77
2022-10-19T00:33:52.210Z,10.50
2022-10-19T00:36:23.101Z,8.85
2022-10-19T00:38:53.671Z,8.65
2022-10-19T00:41:24.863Z,6.13
2022-10-19T00:43:56.094Z,11.32
2022-10-19T00:46:27.566Z,10.53
2022-10-19T00:49:01.235Z,10.70
2022-10-19T00:51:32.437Z,20.83
2022-10-19T00:54:03.726Z,8.55
2022-10-19T00:56:34.720Z,16.70
2022-10-19T00:59:06.461Z,9.07
2022-10-19T01:01:37.619Z,5.53
2022-10-19T01:04:07.425Z,24.88
2022-10-19T01:06:37.723Z,8.90
2022-10-19T01:09:10.527Z,10.60
2022-10-19T01:11:46.122Z,8.00
2022-10-19T01:14:26.143Z,3.63
2022-10-19T01:17:04.979Z,18.15
2022-10-19T01:19:47.622Z,11.70
2022-10-19T01:22:26.349Z,6.32
2022-10-19T01:25:02.035Z,5.53
2022-10-19T01:27:41.144Z,4.93
2022-10-19T01:30:14.597Z,4.10
2022-10-19T01:32:49.170Z,9.75
2022-10-19T01:35:23.539Z,7.68
2022-10-19T01:37:57.864Z,8.32
2022-10-19T01:40:30.540Z,6.22
2022-10-19T01:43:03.644Z,7.78
2022-10-19T01:45:39.122Z,7.22
2022-10-19T01:48:12.996Z,10.00
2022-10-19T01:50:47.753Z,8.68
2022-10-19T01:53:18.207Z,6.22
2022-10-19T01:55:50.065Z,13.98
2022-10-19T01:58:20.814Z,7.13
2022-10-19T02:00:54.365Z,4.80
2022-10-19T02:03:25.256Z,4.90
2022-10-19T02:05:55.528Z,10.20
2022-10-19T02:08:29.081Z,5.85
2022-10-19T02:11:04.067Z,3.65
2022-10-19T02:13:34.500Z,6.30
2022-10-19T02:16:08.005Z,8.27
2022-10-19T02:18:39.916Z,12.00
2022-10-19T02:21:10.290Z,7.03
2022-10-19T02:23:40.215Z,5.78
2022-10-19T02:26:10.577Z,12.15
2022-10-19T02:28:40.609Z,7.82
2022-10-19T02:31:13.182Z,7.03
2022-10-19T02:33:42.779Z,5.30
2022-10-19T02:36:12.610Z,4.05
2022-10-19T02:38:43.385Z,11.48
2022-10-19T02:41:16.591Z,9.25
2022-10-19T02:43:49.031Z,7.68
2022-10-19T02:46:23.082Z,7.93
2022-10-19T02:48:53.308Z,7.78
2022-10-19T02:51:30.840Z,12.80
2022-10-19T02:54:04.085Z,3.97
2022-10-19T02:56:36.742Z,4.93
2022-10-19T02:59:06.405Z,8.75
2022-10-19T03:01:37.424Z,7.13
2022-10-19T03:06:37.459Z,4.97
2022-10-19T03:09:07.468Z,6.47
2022-10-19T03:11:38.342Z,10.88
2022-10-19T03:14:07.740Z,3.55
2022-10-19T03:16:39.266Z,4.38
2022-10-19T03:19:08.823Z,10.75
2022-10-19T03:21:38.849Z,7.95
2022-10-19T03:24:08.446Z,5.10
2022-10-19T03:26:38.824Z,5.97
2022-10-19T03:29:08.002Z,10.10
2022-10-19T03:31:37.770Z,9.07
2022-10-19T03:34:08.669Z,10.23
2022-10-19T03:36:39.003Z,9.27
2022-10-19T03:39:09.774Z,8.73
2022-10-19T03:41:39.518Z,10.18
2022-10-19T03:44:09.483Z,7.82
2022-10-19T03:46:40.048Z,8.93
2022-10-19T03:49:12.162Z,11.82
2022-10-19T03:51:41.971Z,9.32
2022-10-19T03:54:15.185Z,12.82
2022-10-19T03:56:45.133Z,11.85
2022-10-19T03:59:16.127Z,9.27
2022-10-19T04:01:48.193Z,8.60
2022-10-19T04:06:49.157Z,7.95
2022-10-19T04:09:20.575Z,8.10
2022-10-19T04:11:51.808Z,10.57
2022-10-19T04:14:32.184Z,10.18
2022-10-19T04:17:06.255Z,9.07
2022-10-19T04:19:40.330Z,10.65
2022-10-19T04:22:11.712Z,7.75
2022-10-19T04:24:43.661Z,5.95
2022-10-19T04:27:14.799Z,11.32
2022-10-19T04:29:45.346Z,10.43
2022-10-19T04:32:21.232Z,9.20
2022-10-19T04:34:53.795Z,11.25
2022-10-19T04:37:33.943Z,8.35
2022-10-19T04:40:10.382Z,9.48
2022-10-19T04:42:45.650Z,13.65
2022-10-19T04:45:19.334Z,10.82
2022-10-19T04:47:54.814Z,6.05
2022-10-19T04:50:31.336Z,12.38
2022-10-19T04:53:06.214Z,12.10
2022-10-19T04:55:48.623Z,11.73
2022-10-19T04:58:22.761Z,9.23
2022-10-19T05:00:53.615Z,10.52
2022-10-19T05:03:24.677Z,13.53
2022-10-19T05:05:56.214Z,14.20
2022-10-19T05:08:30.364Z,11.25
2022-10-19T05:11:04.128Z,10.45
2022-10-19T05:13:37.411Z,11.57
2022-10-19T05:16:11.075Z,14.07
2022-10-19T05:18:43.523Z,13.10
2022-10-19T05:21:16.261Z,11.38
2022-10-19T05:23:48.752Z,8.90
2022-10-19T05:26:24.795Z,14.18
2022-10-19T05:29:00.262Z,16.40
2022-10-19T05:31:32.174Z,5.10
2022-10-19T05:36:42.240Z,14.02
2022-10-19T05:39:18.365Z,18.90
2022-10-19T05:41:50.014Z,6.07
2022-10-19T05:44:22.074Z,14.70
2022-10-19T05:49:35.341Z,14.23
2022-10-19T05:52:05.878Z,16.98
2022-10-19T05:54:39.081Z,11.73
2022-10-19T05:57:09.111Z,13.30
2022-10-19T05:59:38.883Z,15.85
2022-10-19T06:02:09.283Z,17.25
2022-10-19T06:04:39.507Z,18.90
2022-10-19T06:07:10.009Z,13.13
2022-10-19T06:09:41.951Z,14.65
2022-10-19T06:12:15.846Z,15.70
2022-10-19T06:14:48.533Z,17.75
2022-10-19T06:17:22.316Z,15.13
2022-10-19T06:19:56.158Z,15.10
2022-10-19T06:22:26.545Z,16.08
2022-10-19T06:25:04.076Z,12.43
2022-10-19T06:27:43.401Z,18.20
2022-10-19T06:30:14.261Z,15.93
2022-10-19T06:32:50.880Z,17.40
2022-10-19T06:35:32.478Z,24.90
2022-10-19T06:38:22.204Z,20.15
2022-10-19T06:41:15.111Z,15.35
2022-10-19T06:43:57.203Z,18.98
2022-10-19T06:46:53.651Z,12.85
2022-10-19T06:49:29.638Z,13.27
2022-10-19T06:52:12.324Z,17.55
2022-10-19T06:54:47.052Z,23.20
2022-10-19T06:57:41.836Z,14.02
2022-10-19T07:00:24.015Z,8.48
2022-10-19T07:03:00.327Z,15.00
2022-10-19T07:05:35.662Z,11.65
2022-10-19T07:08:23.072Z,13.75
2022-10-19T07:11:05.179Z,17.10
2022-10-19T07:13:41.347Z,15.48
2022-10-19T07:16:21.732Z,14.52
2022-10-19T07:18:53.509Z,13.35
2022-10-19T07:21:37.395Z,12.00
2022-10-19T07:24:16.567Z,14.45
2022-10-19T07:27:04.670Z,9.07
2022-10-19T07:29:49.369Z,14.20
2022-10-19T07:32:26.084Z,15.02
2022-10-19T07:34:59.232Z,12.73
2022-10-19T07:40:06.279Z,14.18
2022-10-19T07:42:40.544Z,11.02
2022-10-19T07:45:22.311Z,13.90
2022-10-19T07:48:00.473Z,16.85
2022-10-19T07:50:39.901Z,16.70
2022-10-19T07:53:20.550Z,8.45
2022-10-19T07:56:06.269Z,11.82
2022-10-19T07:58:40.148Z,10.82
2022-10-19T08:01:20.394Z,9.68
2022-10-19T08:06:59.227Z,12.52
2022-10-19T08:09:52.101Z,12.95
2022-10-19T08:12:31.816Z,7.72
2022-10-19T08:15:25.305Z,15.10
2022-10-19T08:18:11.610Z,11.15
2022-10-19T08:20:46.698Z,9.20
2022-10-19T08:23:25.888Z,8.82
2022-10-19T08:26:04.500Z,12.93
2022-10-19T08:31:21.099Z,14.68
2022-10-19T08:33:56.043Z,11.13
2022-10-19T08:36:37.598Z,9.02
2022-10-19T08:39:08.658Z,19.58
2022-10-19T08:42:01.231Z,13.05
2022-10-19T08:44:49.582Z,15.93
2022-10-19T08:47:26.219Z,19.33
2022-10-19T08:50:25.956Z,18.90
2022-10-19T08:53:07.036Z,12.55
2022-10-19T08:55:42.881Z,8.82
2022-10-19T08:58:23.586Z,12.43
2022-10-19T09:01:03.077Z,9.80
2022-10-19T09:03:54.843Z,14.50
2022-10-19T09:06:38.021Z,9.23
2022-10-19T09:09:12.460Z,11.00
2022-10-19T09:11:45.208Z,10.43
2022-10-19T09:14:18.970Z,9.95
2022-10-19T09:16:48.979Z,15.07
2022-10-19T09:19:26.272Z,13.38
2022-10-19T09:22:10.680Z,12.15
2022-10-19T09:24:44.735Z,16.13
2022-10-19T09:27:23.617Z,13.27
2022-10-19T09:29:58.653Z,12.07
2022-10-19T09:32:33.536Z,15.07
2022-10-19T09:35:04.230Z,24.10
2022-10-19T09:37:41.976Z,15.07
2022-10-19T09:40:18.108Z,13.90
2022-10-19T09:42:57.356Z,16.10
2022-10-19T09:45:34.083Z,12.95
2022-10-19T09:48:13.844Z,11.98
2022-10-19T09:50:49.836Z,9.85
2022-10-19T09:53:27.142Z,13.07
2022-10-19T09:56:04.052Z,13.80
2022-10-19T09:58:38.306Z,12.35
2022-10-19T10:01:08.303Z,12.93
2022-10-19T10:03:39.713Z,17.42
2022-10-19T10:06:17.011Z,14.15
2022-10-19T10:09:01.723Z,11.50
2022-10-19T10:11:44.034Z,10.02
2022-10-19T10:14:23.663Z,13.97
2022-10-19T10:16:57.527Z,10.30
2022-10-19T10:19:31.773Z,9.00
2022-10-19T10:22:06.788Z,12.13
2022-10-19T10:24:55.705Z,14.38
2022-10-19T10:27:44.942Z,19.45
2022-10-19T10:30:18.834Z,10.60
2022-10-19T10:32:50.688Z,14.13
2022-10-19T10:35:25.470Z,13.93
2022-10-19T10:38:06.927Z,10.95
2022-10-19T10:40:42.331Z,14.32
2022-10-19T10:43:19.430Z,14.05
2022-10-19T10:45:53.701Z,10.90
2022-10-19T10:48:38.656Z,13.65
2022-10-19T10:51:28.168Z,13.13
2022-10-19T10:54:09.303Z,13.18
2022-10-19T10:57:00.846Z,15.25
2022-10-19T10:59:45.504Z,13.50
2022-10-19T11:02:52.706Z,12.00
2022-10-19T11:05:34.683Z,13.98
2022-10-19T11:08:11.377Z,14.40
2022-10-19T11:10:55.461Z,11.30
2022-10-19T11:13:37.214Z,17.50
2022-10-19T11:16:26.302Z,19.38
2022-10-19T11:22:01.515Z,10.95
2022-10-19T11:24:37.656Z,15.48
2022-10-19T11:27:15.922Z,8.32
2022-10-19T11:29:52.306Z,9.13
2022-10-19T11:32:28.001Z,11.50
2022-10-19T11:35:08.155Z,14.18
2022-10-19T11:38:18.262Z,15.82
2022-10-19T11:41:13.230Z,13.25
2022-10-19T11:43:51.638Z,14.90
2022-10-19T11:46:30.557Z,13.35
2022-10-19T11:49:08.364Z,10.82
2022-10-19T11:51:46.950Z,9.35
2022-10-19T11:54:42.922Z,21.73
2022-10-19T11:57:15.941Z,14.85
2022-10-19T12:00:00.251Z,14.35
2022-10-19T12:02:51.426Z,8.40
2022-10-19T12:05:29.061Z,13.25
2022-10-19T12:08:08.549Z,9.45
2022-10-19T12:10:46.588Z,9.32
2022-10-19T12:13:24.254Z,16.48
2022-10-19T12:15:55.495Z,20.77
2022-10-19T12:18:36.232Z,10.43
2022-10-19T12:21:21.344Z,16.58
2022-10-19T12:24:05.600Z,10.73
2022-10-19T12:26:50.034Z,8.13
2022-10-19T12:29:45.317Z,21.35
2022-10-19T12:32:23.727Z,28.80
2022-10-19T12:35:09.943Z,15.88
2022-10-19T12:37:48.534Z,14.10
2022-10-19T12:40:22.294Z,16.23
2022-10-19T12:43:10.624Z,8.57
2022-10-19T12:45:44.442Z,14.50
2022-10-19T12:48:21.849Z,13.43
2022-10-19T12:51:03.852Z,8.25
2022-10-19T12:53:38.751Z,11.27
2022-10-19T12:56:17.864Z,17.20
2022-10-19T12:58:59.627Z,11.48
2022-10-19T13:01:53.473Z,14.68
2022-10-19T13:04:25.248Z,10.50
2022-10-19T13:07:13.556Z,15.40
2022-10-19T13:09:46.772Z,14.27
2022-10-19T13:12:30.886Z,15.80
2022-10-19T13:15:06.721Z,12.95
2022-10-19T13:17:44.456Z,12.60
2022-10-19T13:20:46.771Z,8.73
2022-10-19T13:23:49.637Z,15.27
2022-10-19T13:26:29.593Z,16.75
2022-10-19T13:29:30.056Z,12.57
2022-10-19T13:32:19.757Z,12.68
2022-10-19T13:34:51.811Z,15.23
2022-10-19T13:37:22.760Z,14.50
2022-10-19T13:39:58.137Z,13.50
2022-10-19T13:42:39.848Z,12.68
2022-10-19T13:45:23.769Z,18.08
2022-10-19T13:48:08.631Z,20.60
2022-10-19T13:50:41.478Z,10.75
2022-10-19T13:53:17.416Z,15.48
2022-10-19T13:56:09.093Z,13.00
2022-10-19T13:59:10.891Z,13.50
2022-10-19T14:02:03.288Z,20.73
2022-10-19T14:04:41.783Z,15.93
2022-10-19T14:07:19.277Z,12.00
2022-10-19T14:10:14.054Z,12.70
2022-10-19T14:13:03.596Z,21.15
2022-10-19T14:15:38.340Z,12.27
2022-10-19T14:18:26.490Z,18.00
2022-10-19T14:21:08.252Z,22.40
2022-10-19T14:23:43.483Z,17.30
2022-10-19T14:26:20.380Z,18.60
2022-10-19T14:29:11.259Z,15.00
2022-10-19T14:32:00.759Z,12.15
2022-10-19T14:34:45.737Z,14.20
2022-10-19T14:37:21.808Z,18.10
2022-10-19T14:40:03.783Z,18.70
2022-10-19T14:42:44.942Z,20.55
2022-10-19T14:48:19.989Z,15.82
2022-10-19T14:51:02.497Z,19.98
2022-10-19T14:53:45.937Z,10.10
2022-10-19T14:56:26.776Z,11.20
2022-10-19T14:59:30.569Z,14.32
2022-10-19T15:02:34.281Z,15.35
2022-10-19T15:05:09.877Z,19.15
2022-10-19T15:07:49.099Z,25.38
2022-10-19T15:10:35.725Z,20.35
2022-10-19T15:13:10.376Z,16.85
2022-10-19T15:16:24.578Z,16.65
2022-10-19T15:19:50.059Z,19.83
2022-10-19T15:22:28.689Z,15.82
2022-10-19T15:25:27.704Z,23.52
2022-10-19T15:28:39.110Z,14.52
2022-10-19T15:31:32.566Z,19.23
2022-10-19T15:34:16.151Z,19.45
2022-10-19T15:37:09.542Z,17.58
2022-10-19T15:39:45.645Z,22.20
2022-10-19T15:42:39.662Z,15.38
2022-10-19T15:45:24.793Z,14.80
2022-10-19T15:48:18.577Z,20.58
2022-10-19T15:51:00.672Z,18.20
2022-10-19T15:53:42.856Z,21.67
2022-10-19T15:56:17.300Z,15.10
2022-10-19T15:58:56.737Z,25.70
2022-10-19T16:04:14.277Z,16.55
2022-10-19T16:06:48.171Z,18.20
2022-10-19T16:09:34.838Z,15.23
2022-10-19T16:12:05.530Z,17.35
2022-10-19T16:14:50.424Z,17.77
2022-10-19T16:17:28.299Z,14.50
2022-10-19T16:20:05.305Z,13.40
2022-10-19T16:22:47.278Z,13.43
2022-10-19T16:28:07.458Z,23.35
2022-10-19T16:30:44.164Z,25.08
2022-10-19T16:33:22.006Z,18.05
2022-10-19T16:36:02.618Z,19.02
2022-10-19T16:38:37.853Z,21.58
2022-10-19T16:41:11.002Z,21.52
2022-10-19T16:43:45.196Z,19.27
2022-10-19T16:46:15.828Z,20.55
2022-10-19T16:48:47.721Z,27.42
2022-10-19T16:51:25.167Z,22.33
2022-10-19T16:53:59.405Z,19.65
2022-10-19T16:56:33.097Z,13.63
2022-10-19T16:59:08.568Z,16.88
2022-10-19T17:01:45.491Z,21.90
2022-10-19T17:04:18.242Z,18.77
2022-10-19T17:06:50.310Z,13.85
2022-10-19T17:12:17.068Z,20.17
2022-10-19T17:14:51.857Z,17.38
2022-10-19T17:17:23.071Z,21.13
2022-10-19T17:20:02.940Z,23.98
2022-10-19T17:22:33.978Z,15.93
2022-10-19T17:25:11.605Z,21.70
2022-10-19T17:27:42.950Z,22.08
2022-10-19T17:30:14.712Z,19.93
2022-10-19T17:35:30.762Z,24.73
2022-10-19T17:38:06.625Z,23.67
2022-10-19T17:40:43.102Z,22.52
2022-10-19T17:43:15.086Z,22.02
2022-10-19T17:45:55.339Z,18.05
2022-10-19T17:48:28.039Z,21.42
2022-10-19T17:51:00.362Z,18.30
2022-10-19T17:53:34.277Z,21.33
2022-10-19T17:56:06.601Z,22.25
2022-10-19T17:58:59.762Z,25.23
2022-10-19T18:01:34.630Z,23.20
2022-10-19T18:04:18.906Z,25.05
2022-10-19T18:06:52.391Z,25.45
2022-10-19T18:09:26.056Z,23.50
2022-10-19T18:12:06.392Z,29.58
2022-10-19T18:14:40.772Z,24.42
2022-10-19T18:17:14.430Z,26.15
2022-10-19T18:19:47.600Z,22.25
2022-10-19T18:22:22.407Z,32.47
2022-10-19T18:24:56.019Z,24.83
2022-10-19T18:27:30.163Z,19.85
2022-10-19T18:30:07.326Z,25.75
2022-10-19T18:32:46.603Z,33.03
2022-10-19T18:35:20.787Z,25.52
2022-10-19T18:37:59.161Z,31.63
2022-10-19T18:40:38.309Z,20.65
2022-10-19T18:43:10.897Z,28.30
2022-10-19T18:45:44.989Z,24.10
2022-10-19T18:48:22.263Z,23.10
2022-10-19T18:50:55.213Z,23.15
2022-10-19T18:53:27.930Z,28.55
2022-10-19T18:56:05.352Z,29.33
2022-10-19T18:58:43.570Z,23.35
2022-10-19T19:01:23.619Z,26.38
2022-10-19T19:04:12.923Z,28.40
2022-10-19T19:06:54.263Z,21.60
2022-10-19T19:09:29.709Z,28.35
2022-10-19T19:12:06.167Z,27.42
2022-10-19T19:14:42.422Z,33.15
2022-10-19T19:17:14.243Z,23.52
2022-10-19T19:19:48.491Z,24.30
2022-10-19T19:22:19.726Z,28.08
2022-10-19T19:24:52.515Z,29.42
2022-10-19T19:27:31.933Z,27.73
2022-10-19T19:30:09.095Z,29.55
2022-10-19T19:32:42.778Z,21.83
2022-10-19T19:35:15.685Z,27.98
2022-10-19T19:37:50.275Z,24.65
2022-10-19T19:40:28.084Z,29.90
2022-10-19T19:43:00.438Z,36.90
2022-10-19T19:45:38.465Z,27.08
2022-10-19T19:48:09.862Z,27.10
2022-10-19T19:50:46.593Z,28.27
2022-10-19T19:54:01.734Z,28.15
2022-10-19T20:08:26.811Z,30.20
2022-10-19T20:11:31.845Z,27.02
2022-10-19T20:15:49.448Z,31.40
2022-10-19T20:19:02.645Z,27.58
2022-10-19T20:22:40.941Z,34.78
2022-10-19T20:33:57.644Z,41.17
2022-10-19T20:50:38.881Z,35.55
2022-10-19T20:58:51.449Z,34.42
2022-10-19T21:01:23.509Z,41.28
2022-10-19T21:04:16.234Z,34.85
2022-10-19T21:07:34.148Z,36.70
2022-10-19T21:10:11.393Z,31.40
2022-10-19T21:13:09.123Z,31.80
2022-10-19T21:19:10.414Z,30.88
2022-10-19T21:21:47.989Z,33.85
2022-10-19T21:24:20.184Z,31.70
2022-10-19T21:29:24.456Z,28.77
2022-10-19T21:31:55.819Z,38.55
2022-10-19T21:34:31.771Z,35.30
2022-10-19T21:37:03.132Z,35.20
2022-10-19T21:39:35.779Z,34.67
2022-10-19T21:42:09.423Z,32.45
2022-10-19T21:44:53.994Z,35.97
2022-10-19T21:47:49.201Z,27.95
2022-10-19T21:50:23.385Z,39.03
2022-10-19T21:53:25.982Z,32.70
2022-10-19T21:56:02.078Z,28.92
2022-10-19T21:58:35.338Z,38.22
2022-10-19T22:01:12.095Z,34.35
2022-10-19T22:06:32.073Z,35.63
2022-10-19T22:09:04.996Z,36.28
2022-10-19T22:11:39.325Z,34.25
2022-10-19T22:14:14.386Z,31.40
2022-10-19T22:16:50.250Z,35.60
2022-10-19T22:19:28.340Z,35.78
2022-10-19T22:22:05.736Z,34.22
2022-10-19T22:24:49.507Z,33.50
2022-10-19T22:27:47.677Z,38.40
2022-10-19T22:33:15.058Z,31.90
2022-10-19T22:36:13.707Z,34.40
2022-10-19T22:38:53.598Z,30.60
2022-10-19T22:42:04.518Z,33.05
2022-10-19T22:44:57.700Z,39.38
2022-10-19T22:50:39.876Z,40.13
2022-10-19T22:53:20.866Z,42.88
2022-10-19T22:56:06.697Z,41.15
2022-10-19T22:58:42.449Z,39.22
2022-10-19T23:01:37.213Z,34.63
2022-10-19T23:04:27.393Z,37.10
2022-10-19T23:09:57.755Z,34.63
2022-10-19T23:12:40.498Z,37.40
2022-10-19T23:15:22.709Z,34.92
2022-10-19T23:18:01.108Z,35.17
2022-10-19T23:20:45.216Z,39.58
2022-10-19T23:23:36.509Z,44.50
2022-10-19T23:26:18.482Z,37.40
2022-10-19T23:29:01.855Z,40.83
2022-10-19T23:31:38.676Z,39.78
2022-10-19T23:34:31.194Z,43.70
2022-10-19T23:37:09.574Z,39.22
2022-10-19T23:39:47.174Z,41.28
2022-10-19T23:42:24.531Z,38.22
2022-10-19T23:45:07.470Z,41.75
2022-10-19T23:47:59.207Z,37.80
2022-10-19T23:50:41.769Z,38.47
2022-10-19T23:53:35.768Z,39.40
2022-10-19T23:56:12.559Z,40.30
2022-10-19T23:58:48.296Z,33.75
